createdAt,value
2018-06-21T00:00:38.684Z,1007.24
2018-06-21T00:01:38.667Z,1007.26
2018-06-21T00:02:38.654Z,1007.26
2018-06-21T00:03:38.662Z,1007.27
2018-06-21T00:04:38.629Z,1007.25
2018-06-21T00:05:38.935Z,1007.24
2018-06-21T00:06:38.614Z,1007.22
2018-06-21T00:07:38.594Z,1007.21
2018-06-21T00:08:38.577Z,1007.21
2018-06-21T00:09:38.565Z,1007.20
2018-06-21T00:10:38.558Z,1007.18
2018-06-21T00:11:38.552Z,1007.12
2018-06-21T00:12:38.840Z,1007.13
2018-06-21T00:13:38.524Z,1007.10
2018-06-21T00:14:38.508Z,1007.09
2018-06-21T00:15:38.490Z,1007.03
2018-06-21T00:16:38.481Z,1007.05
2018-06-21T00:17:38.468Z,1007.00
2018-06-21T00:18:38.547Z,1007.01
2018-06-21T00:19:38.763Z,1006.99
2018-06-21T00:20:38.436Z,1006.99
2018-06-21T00:21:38.429Z,1006.94
2018-06-21T00:22:38.403Z,1006.98
2018-06-21T00:23:38.393Z,1006.97
2018-06-21T00:24:38.374Z,1006.96
2018-06-21T00:25:38.359Z,1007.00
2018-06-21T00:26:38.651Z,1006.97
2018-06-21T00:27:38.336Z,1006.98
2018-06-21T00:28:38.324Z,1006.96
2018-06-21T00:29:38.313Z,1006.90
2018-06-21T00:30:38.303Z,1006.92
2018-06-21T00:31:38.287Z,1006.89
2018-06-21T00:32:38.275Z,1006.89
2018-06-21T00:33:38.562Z,1006.88
2018-06-21T00:34:38.248Z,1006.89
2018-06-21T00:35:38.238Z,1006.90
2018-06-21T00:36:38.218Z,1006.87
2018-06-21T00:37:38.212Z,1006.90
2018-06-21T00:38:38.199Z,1006.88
2018-06-21T00:39:38.183Z,1006.89
2018-06-21T00:40:38.723Z,1006.88
2018-06-21T00:41:38.155Z,1006.85
2018-06-21T00:42:38.144Z,1006.83
2018-06-21T00:43:38.345Z,1006.86
2018-06-21T00:44:38.131Z,1006.82
2018-06-21T00:45:38.101Z,1006.85
2018-06-21T00:46:38.090Z,1006.82
2018-06-21T00:47:38.374Z,1006.81
2018-06-21T00:48:38.063Z,1006.82
2018-06-21T00:49:38.049Z,1006.82
2018-06-21T00:50:38.046Z,1006.80
2018-06-21T00:51:38.024Z,1006.82
2018-06-21T00:52:38.005Z,1006.83
2018-06-21T00:53:38.298Z,1006.78
2018-06-21T00:54:37.983Z,1006.75
2018-06-21T00:55:37.982Z,1006.74
2018-06-21T00:56:37.956Z,1006.76
2018-06-21T00:57:37.952Z,1006.77
2018-06-21T00:58:37.935Z,1006.72
2018-06-21T00:59:38.239Z,1006.69
2018-06-21T01:00:37.903Z,1006.69
2018-06-21T01:01:37.992Z,1006.69
2018-06-21T01:02:37.937Z,1006.68
2018-06-21T01:03:37.864Z,1006.70
2018-06-21T01:04:37.848Z,1006.68
2018-06-21T01:05:38.140Z,1006.66
2018-06-21T01:06:37.836Z,1006.63
2018-06-21T01:07:37.829Z,1006.62
2018-06-21T01:09:37.814Z,1006.59
2018-06-21T01:10:37.779Z,1006.55
2018-06-21T01:11:38.061Z,1006.54
2018-06-21T01:12:37.741Z,1006.45
2018-06-21T01:13:37.730Z,1006.47
2018-06-21T01:14:37.717Z,1006.49
2018-06-21T01:15:37.758Z,1006.48
2018-06-21T01:16:37.685Z,1006.46
2018-06-21T01:17:37.974Z,1006.43
2018-06-21T01:18:37.689Z,1006.43
2018-06-21T01:19:37.644Z,1006.43
2018-06-21T01:20:37.638Z,1006.39
2018-06-21T01:21:37.921Z,1006.34
2018-06-21T01:22:37.604Z,1006.35
2018-06-21T01:23:37.911Z,1006.30
2018-06-21T01:24:37.577Z,1006.27
2018-06-21T01:25:37.568Z,1006.23
2018-06-21T01:26:37.551Z,1006.24
2018-06-21T01:27:37.593Z,1006.22
2018-06-21T01:28:37.524Z,1006.23
2018-06-21T01:29:37.820Z,1006.17
2018-06-21T01:30:37.504Z,1006.19
2018-06-21T01:31:37.489Z,1006.20
2018-06-21T01:32:37.469Z,1006.16
2018-06-21T01:34:37.490Z,1006.15
2018-06-21T01:35:37.428Z,1006.14
2018-06-21T01:36:37.712Z,1006.15
2018-06-21T01:37:37.409Z,1006.14
2018-06-21T01:38:37.389Z,1006.09
2018-06-21T01:39:37.371Z,1006.07
2018-06-21T01:40:37.360Z,1006.05
2018-06-21T01:41:37.348Z,1006.05
2018-06-21T01:42:37.338Z,1006.03
2018-06-21T01:43:37.617Z,1006.01
2018-06-21T01:44:37.305Z,1006.00
2018-06-21T01:45:37.294Z,1005.98
2018-06-21T01:46:37.275Z,1005.95
2018-06-21T01:47:37.264Z,1005.95
2018-06-21T01:48:37.264Z,1005.96
2018-06-21T01:49:37.236Z,1005.96
2018-06-21T01:50:37.524Z,1005.91
2018-06-21T01:51:37.215Z,1005.88
2018-06-21T01:52:37.192Z,1005.84
2018-06-21T01:53:37.180Z,1005.83
2018-06-21T01:54:37.172Z,1005.83
2018-06-21T01:55:37.154Z,1005.80
2018-06-21T01:56:37.136Z,1005.76
2018-06-21T01:57:37.440Z,1005.73
2018-06-21T01:58:37.110Z,1005.76
2018-06-21T01:59:37.099Z,1005.75
2018-06-21T02:00:37.081Z,1005.72
2018-06-21T02:01:37.067Z,1005.75
2018-06-21T02:02:37.055Z,1005.71
2018-06-21T02:03:37.049Z,1005.72
2018-06-21T02:04:37.324Z,1005.70
2018-06-21T02:05:37.020Z,1005.68
2018-06-21T02:06:37.010Z,1005.65
2018-06-21T02:07:36.986Z,1005.67
2018-06-21T02:08:36.971Z,1005.72
2018-06-21T02:09:36.960Z,1005.70
2018-06-21T02:10:36.961Z,1005.71
2018-06-21T02:11:37.236Z,1005.66
2018-06-21T02:12:36.943Z,1005.66
2018-06-21T02:13:36.903Z,1005.65
2018-06-21T02:14:36.895Z,1005.64
2018-06-21T02:15:36.898Z,1005.64
2018-06-21T02:16:36.858Z,1005.62
2018-06-21T02:17:37.189Z,1005.64
2018-06-21T02:18:37.185Z,1005.61
2018-06-21T02:19:36.826Z,1005.66
2018-06-21T02:20:36.805Z,1005.60
2018-06-21T02:21:36.823Z,1005.60
2018-06-21T02:22:36.774Z,1005.62
2018-06-21T02:23:36.762Z,1005.62
2018-06-21T02:24:37.056Z,1005.63
2018-06-21T02:25:36.750Z,1005.60
2018-06-21T02:26:36.787Z,1005.60
2018-06-21T02:27:36.708Z,1005.63
2018-06-21T02:28:36.698Z,1005.61
2018-06-21T02:29:36.685Z,1005.59
2018-06-21T02:30:36.959Z,1005.56
2018-06-21T02:31:36.645Z,1005.51
2018-06-21T02:32:36.631Z,1005.53
2018-06-21T02:33:36.698Z,1005.50
2018-06-21T02:34:36.766Z,1005.52
2018-06-21T02:35:37.171Z,1005.48
2018-06-21T02:36:36.877Z,1005.52
2018-06-21T02:37:36.579Z,1005.48
2018-06-21T02:38:36.554Z,1005.51
2018-06-21T02:39:36.546Z,1005.46
2018-06-21T02:40:36.526Z,1005.47
2018-06-21T02:41:36.501Z,1005.44
2018-06-21T02:42:36.789Z,1005.41
2018-06-21T02:44:36.462Z,1005.38
2018-06-21T02:45:36.463Z,1005.35
2018-06-21T02:46:36.440Z,1005.37
2018-06-21T02:47:36.421Z,1005.37
2018-06-21T02:48:36.702Z,1005.35
2018-06-21T02:49:36.397Z,1005.33
2018-06-21T02:50:36.376Z,1005.30
2018-06-21T02:51:36.365Z,1005.33
2018-06-21T02:53:36.337Z,1005.35
2018-06-21T02:54:36.321Z,1005.29
2018-06-21T02:55:36.611Z,1005.27
2018-06-21T02:56:36.288Z,1005.21
2018-06-21T02:57:36.276Z,1005.23
2018-06-21T02:59:36.251Z,1005.21
2018-06-21T03:00:36.236Z,1005.23
2018-06-21T03:01:36.522Z,1005.19
2018-06-21T03:02:36.203Z,1005.19
2018-06-21T03:03:36.201Z,1005.22
2018-06-21T03:04:36.177Z,1005.18
2018-06-21T03:05:36.164Z,1005.15
2018-06-21T03:07:36.466Z,1005.10
2018-06-21T03:08:36.123Z,1005.12
2018-06-21T03:09:36.107Z,1005.09
2018-06-21T03:10:36.102Z,1005.09
2018-06-21T03:11:36.077Z,1005.09
2018-06-21T03:12:36.061Z,1005.11
2018-06-21T03:13:36.152Z,1005.10
2018-06-21T03:14:36.343Z,1005.09
2018-06-21T03:15:36.022Z,1005.07
2018-06-21T03:16:36.011Z,1005.02
2018-06-21T03:18:35.979Z,1005.01
2018-06-21T03:19:35.964Z,1005.03
2018-06-21T03:20:35.954Z,1004.95
2018-06-21T03:21:36.246Z,1004.93
2018-06-21T03:22:35.921Z,1004.91
2018-06-21T03:23:35.907Z,1004.89
2018-06-21T03:24:35.895Z,1004.86
2018-06-21T03:25:35.881Z,1004.86
2018-06-21T03:26:35.873Z,1004.82
2018-06-21T03:28:36.142Z,1004.80
2018-06-21T03:29:35.828Z,1004.79
2018-06-21T03:30:35.811Z,1004.78
2018-06-21T03:31:35.797Z,1004.81
2018-06-21T03:32:35.782Z,1004.79
2018-06-21T03:33:35.769Z,1004.78
2018-06-21T03:34:35.791Z,1004.80
2018-06-21T03:35:36.045Z,1004.79
2018-06-21T03:36:35.727Z,1004.78
2018-06-21T03:37:35.714Z,1004.81
2018-06-21T03:38:35.702Z,1004.77
2018-06-21T03:39:35.733Z,1004.76
2018-06-21T03:40:35.668Z,1004.77
2018-06-21T03:41:35.664Z,1004.74
2018-06-21T03:42:35.942Z,1004.68
2018-06-21T03:43:35.629Z,1004.71
2018-06-21T03:44:35.627Z,1004.71
2018-06-21T03:46:35.592Z,1004.70
2018-06-21T03:47:35.586Z,1004.71
2018-06-21T03:48:35.578Z,1004.67
2018-06-21T03:50:35.604Z,1004.68
2018-06-21T03:51:35.523Z,1004.67
2018-06-21T03:52:35.501Z,1004.70
2018-06-21T03:53:35.494Z,1004.72
2018-06-21T03:54:35.481Z,1004.72
2018-06-21T03:55:35.546Z,1004.71
2018-06-21T03:56:35.451Z,1004.71
2018-06-21T03:58:35.418Z,1004.70
2018-06-21T03:59:35.407Z,1004.71
2018-06-21T04:00:35.399Z,1004.72
2018-06-21T04:01:35.680Z,1004.67
2018-06-21T04:02:35.363Z,1004.69
2018-06-21T04:03:35.352Z,1004.67
2018-06-21T04:04:36.271Z,1004.72
2018-06-21T04:05:35.325Z,1004.72
2018-06-21T04:06:35.308Z,1004.72
2018-06-21T04:07:35.300Z,1004.68
2018-06-21T04:08:35.282Z,1004.67
2018-06-21T04:09:35.277Z,1004.68
2018-06-21T04:10:35.252Z,1004.67
2018-06-21T04:11:35.255Z,1004.70
2018-06-21T04:12:35.235Z,1004.71
2018-06-21T04:13:35.211Z,1004.65
2018-06-21T04:14:35.199Z,1004.70
2018-06-21T04:15:35.185Z,1004.67
2018-06-21T04:16:35.170Z,1004.68
2018-06-21T04:17:35.238Z,1004.67
2018-06-21T04:19:35.438Z,1004.63
2018-06-21T04:20:35.120Z,1004.67
2018-06-21T04:21:35.118Z,1004.69
2018-06-21T04:22:35.089Z,1004.63
2018-06-21T04:23:35.079Z,1004.61
2018-06-21T04:24:35.062Z,1004.61
2018-06-21T04:25:35.050Z,1004.61
2018-06-21T04:26:35.062Z,1004.72
2018-06-21T04:27:35.025Z,1004.68
2018-06-21T04:28:35.025Z,1004.59
2018-06-21T04:29:35.003Z,1004.63
2018-06-21T04:30:34.987Z,1004.56
2018-06-21T04:31:35.273Z,1004.59
2018-06-21T04:32:34.957Z,1004.50
2018-06-21T04:33:34.944Z,1004.55
2018-06-21T04:34:34.940Z,1004.54
2018-06-21T04:35:34.926Z,1004.55
2018-06-21T04:36:34.955Z,1004.56
2018-06-21T04:37:34.950Z,1004.50
2018-06-21T04:38:35.183Z,1004.50
2018-06-21T04:39:34.872Z,1004.49
2018-06-21T04:40:34.854Z,1004.44
2018-06-21T04:41:34.865Z,1004.39
2018-06-21T04:42:34.831Z,1004.40
2018-06-21T04:43:34.965Z,1004.39
2018-06-21T04:44:34.804Z,1004.41
2018-06-21T04:45:35.092Z,1004.41
2018-06-21T04:46:34.806Z,1004.38
2018-06-21T04:47:34.762Z,1004.35
2018-06-21T04:48:34.750Z,1004.34
2018-06-21T04:49:34.736Z,1004.31
2018-06-21T04:50:34.721Z,1004.23
2018-06-21T04:51:34.718Z,1004.28
2018-06-21T04:52:35.009Z,1004.26
2018-06-21T04:53:34.690Z,1004.23
2018-06-21T04:54:34.672Z,1004.20
2018-06-21T04:55:34.666Z,1004.16
2018-06-21T04:56:35.847Z,1004.17
2018-06-21T04:57:34.634Z,1004.20
2018-06-21T04:58:34.923Z,1004.22
2018-06-21T04:59:34.614Z,1004.17
2018-06-21T05:00:34.611Z,1004.08
2018-06-21T05:01:34.584Z,1004.09
2018-06-21T05:02:34.570Z,1004.06
2018-06-21T05:03:34.562Z,1004.05
2018-06-21T05:04:34.845Z,1004.01
2018-06-21T05:05:34.539Z,1004.00
2018-06-21T05:06:34.521Z,1004.01
2018-06-21T05:07:34.560Z,1003.95
2018-06-21T05:08:34.497Z,1003.96
2018-06-21T05:09:34.484Z,1004.01
2018-06-21T05:10:34.484Z,1004.00
2018-06-21T05:11:34.790Z,1004.04
2018-06-21T05:12:34.446Z,1004.04
2018-06-21T05:13:34.438Z,1004.01
2018-06-21T05:14:34.420Z,1003.99
2018-06-21T05:15:34.425Z,1003.95
2018-06-21T05:16:34.403Z,1003.98
2018-06-21T05:17:34.383Z,1003.96
2018-06-21T05:18:34.675Z,1003.95
2018-06-21T05:19:34.366Z,1003.92
2018-06-21T05:20:34.352Z,1003.90
2018-06-21T05:21:34.339Z,1003.90
2018-06-21T05:22:34.344Z,1003.90
2018-06-21T05:23:34.596Z,1003.91
2018-06-21T05:24:34.300Z,1003.88
2018-06-21T05:25:34.741Z,1003.90
2018-06-21T05:26:34.275Z,1003.92
2018-06-21T05:27:35.849Z,1003.92
2018-06-21T05:28:34.396Z,1003.85
2018-06-21T05:29:34.331Z,1003.89
2018-06-21T05:30:34.417Z,1003.80
2018-06-21T05:31:34.629Z,1003.80
2018-06-21T05:32:34.281Z,1003.75
2018-06-21T05:33:34.200Z,1003.77
2018-06-21T05:35:34.176Z,1003.76
2018-06-21T05:36:34.170Z,1003.74
2018-06-21T05:37:34.282Z,1003.74
2018-06-21T05:38:34.137Z,1003.65
2018-06-21T05:39:34.132Z,1003.71
2018-06-21T05:41:34.107Z,1003.71
2018-06-21T05:42:34.090Z,1003.77
2018-06-21T05:43:34.386Z,1003.66
2018-06-21T05:44:34.067Z,1003.60
2018-06-21T05:45:34.055Z,1003.58
2018-06-21T05:46:34.044Z,1003.47
2018-06-21T05:47:34.039Z,1003.57
2018-06-21T05:48:34.033Z,1003.46
2018-06-21T05:49:34.315Z,1003.39
2018-06-21T05:50:34.007Z,1003.43
2018-06-21T05:51:34.008Z,1003.39
2018-06-21T05:52:33.977Z,1003.45
2018-06-21T05:53:33.979Z,1003.36
2018-06-21T05:54:33.961Z,1003.35
2018-06-21T05:55:34.245Z,1003.39
2018-06-21T05:56:33.938Z,1003.35
2018-06-21T05:57:33.922Z,1003.28
2018-06-21T05:58:33.909Z,1003.29
2018-06-21T05:59:33.973Z,1003.25
2018-06-21T06:00:33.933Z,1003.19
2018-06-21T06:01:34.179Z,1003.20
2018-06-21T06:02:33.871Z,1003.25
2018-06-21T06:04:33.865Z,1003.22
2018-06-21T06:05:33.837Z,1003.18
2018-06-21T06:06:33.821Z,1003.17
2018-06-21T06:07:34.118Z,1003.26
2018-06-21T06:08:33.828Z,1003.16
2018-06-21T06:09:33.799Z,1003.16
2018-06-21T06:11:33.774Z,1003.13
2018-06-21T06:12:33.777Z,1003.11
2018-06-21T06:13:33.757Z,1003.16
2018-06-21T06:14:33.750Z,1003.17
2018-06-21T06:15:33.730Z,1003.09
2018-06-21T06:16:33.710Z,1003.12
2018-06-21T06:17:33.704Z,1003.14
2018-06-21T06:18:33.695Z,1003.11
2018-06-21T06:19:33.682Z,1003.12
2018-06-21T06:20:33.673Z,1003.08
2018-06-21T06:21:33.658Z,1002.99
2018-06-21T06:22:33.651Z,1002.99
2018-06-21T06:23:33.643Z,1003.06
2018-06-21T06:24:33.624Z,1003.06
2018-06-21T06:25:33.666Z,1002.93
2018-06-21T06:26:33.615Z,1002.88
2018-06-21T06:27:33.601Z,1002.89
2018-06-21T06:28:33.657Z,1002.93
2018-06-21T06:29:33.571Z,1002.91
2018-06-21T06:30:33.570Z,1002.89
2018-06-21T06:31:33.919Z,1002.93
2018-06-21T06:32:33.541Z,1002.94
2018-06-21T06:33:33.578Z,1002.91
2018-06-21T06:34:33.524Z,1002.99
2018-06-21T06:35:33.511Z,1002.89
2018-06-21T06:36:33.497Z,1002.83
2018-06-21T06:37:33.490Z,1002.80
2018-06-21T06:38:33.771Z,1002.84
2018-06-21T06:39:33.458Z,1002.94
2018-06-21T06:40:33.460Z,1003.00
2018-06-21T06:41:33.441Z,1003.09
2018-06-21T06:42:33.425Z,1003.10
2018-06-21T06:43:33.414Z,1003.02
2018-06-21T06:44:33.412Z,1003.01
2018-06-21T06:45:33.695Z,1003.05
2018-06-21T06:46:33.392Z,1003.11
2018-06-21T06:47:33.369Z,1003.14
2018-06-21T06:48:33.361Z,1003.22
2018-06-21T06:49:33.342Z,1003.29
2018-06-21T06:50:33.332Z,1003.34
2018-06-21T06:51:33.619Z,1003.32
2018-06-21T06:53:33.295Z,1003.32
2018-06-21T06:54:33.292Z,1003.37
2018-06-21T06:57:33.587Z,1003.43
2018-06-21T06:58:33.233Z,1003.49
2018-06-21T06:59:33.215Z,1003.46
2018-06-21T07:00:33.201Z,1003.52
2018-06-21T07:01:33.194Z,1003.59
2018-06-21T07:02:33.175Z,1003.62
2018-06-21T07:04:33.450Z,1003.74
2018-06-21T07:05:33.136Z,1003.73
2018-06-21T07:06:33.130Z,1003.71
2018-06-21T07:07:33.112Z,1003.83
2018-06-21T07:08:33.112Z,1003.88
2018-06-21T07:09:33.138Z,1003.84
2018-06-21T07:10:33.369Z,1003.82
2018-06-21T07:11:33.067Z,1003.83
2018-06-21T07:12:33.044Z,1003.84
2018-06-21T07:13:33.031Z,1003.90
2018-06-21T07:14:33.023Z,1003.90
2018-06-21T07:15:33.002Z,1003.88
2018-06-21T07:16:33.291Z,1003.90
2018-06-21T07:17:32.971Z,1003.89
2018-06-21T07:18:32.957Z,1003.89
2018-06-21T07:19:32.950Z,1003.90
2018-06-21T07:20:32.927Z,1003.86
2018-06-21T07:21:32.921Z,1003.87
2018-06-21T07:22:33.203Z,1003.92
2018-06-21T07:23:32.884Z,1003.95
2018-06-21T07:24:32.897Z,1004.05
2018-06-21T07:25:32.855Z,1004.05
2018-06-21T07:26:32.844Z,1004.17
2018-06-21T07:27:32.825Z,1004.16
2018-06-21T07:29:33.094Z,1004.19
2018-06-21T07:30:32.782Z,1004.20
2018-06-21T07:31:32.769Z,1004.19
2018-06-21T07:32:32.749Z,1004.21
2018-06-21T07:33:32.775Z,1004.10
2018-06-21T07:34:32.745Z,1004.14
2018-06-21T07:35:33.759Z,1004.13
2018-06-21T07:36:32.693Z,1004.21
2018-06-21T07:37:32.675Z,1004.14
2018-06-21T07:38:32.668Z,1004.09
2018-06-21T07:39:33.036Z,1004.11
2018-06-21T07:40:33.016Z,1004.07
2018-06-21T07:41:32.920Z,1004.06
2018-06-21T07:42:32.606Z,1004.02
2018-06-21T07:43:32.593Z,1004.00
2018-06-21T07:44:32.572Z,1003.97
2018-06-21T07:46:32.559Z,1003.94
2018-06-21T07:47:32.862Z,1003.93
2018-06-21T07:48:32.528Z,1003.94
2018-06-21T07:49:32.499Z,1003.91
2018-06-21T07:50:32.484Z,1003.94
2018-06-21T07:51:32.475Z,1003.97
2018-06-21T07:52:32.458Z,1004.09
2018-06-21T07:53:32.744Z,1004.09
2018-06-21T07:54:32.425Z,1004.11
2018-06-21T07:55:32.414Z,1004.12
2018-06-21T07:56:32.402Z,1004.12
2018-06-21T07:57:32.841Z,1004.21
2018-06-21T07:58:32.795Z,1004.23
2018-06-21T07:59:32.368Z,1004.20
2018-06-21T08:00:32.662Z,1004.30
2018-06-21T08:01:32.325Z,1004.34
2018-06-21T08:02:32.314Z,1004.40
2018-06-21T08:03:32.292Z,1004.39
2018-06-21T08:04:32.278Z,1004.36
2018-06-21T08:05:32.262Z,1004.35
2018-06-21T08:06:32.621Z,1004.37
2018-06-21T08:07:32.230Z,1004.44
2018-06-21T08:08:32.224Z,1004.37
2018-06-21T08:09:32.212Z,1004.35
2018-06-21T08:10:32.194Z,1004.34
2018-06-21T08:11:32.234Z,1004.35
2018-06-21T08:12:32.460Z,1004.32
2018-06-21T08:13:32.200Z,1004.35
2018-06-21T08:14:32.138Z,1004.31
2018-06-21T08:15:32.184Z,1004.27
2018-06-21T08:16:32.111Z,1004.23
2018-06-21T08:17:32.082Z,1004.29
2018-06-21T08:19:32.356Z,1004.34
2018-06-21T08:20:32.051Z,1004.33
2018-06-21T08:21:32.051Z,1004.30
2018-06-21T08:22:32.016Z,1004.30
2018-06-21T08:23:32.051Z,1004.29
2018-06-21T08:24:31.988Z,1004.26
2018-06-21T08:25:32.272Z,1004.28
2018-06-21T08:27:32.172Z,1004.23
2018-06-21T08:28:31.926Z,1004.22
2018-06-21T08:29:31.909Z,1004.20
2018-06-21T08:30:31.894Z,1004.16
2018-06-21T08:31:32.180Z,1004.22
2018-06-21T08:32:31.867Z,1004.21
2018-06-21T08:33:31.852Z,1004.22
2018-06-21T08:34:31.840Z,1004.23
2018-06-21T08:36:31.858Z,1004.25
2018-06-21T08:37:32.095Z,1004.21
2018-06-21T08:38:31.779Z,1004.14
2018-06-21T08:39:31.769Z,1004.12
2018-06-21T08:40:31.744Z,1004.30
2018-06-21T08:41:31.745Z,1004.42
2018-06-21T08:42:31.771Z,1004.56
2018-06-21T08:43:32.015Z,1004.69
2018-06-21T08:44:31.694Z,1004.75
2018-06-21T08:45:31.670Z,1004.69
2018-06-21T08:46:31.661Z,1004.67
2018-06-21T08:47:31.643Z,1004.57
2018-06-21T08:48:31.688Z,1004.57
2018-06-21T08:49:31.928Z,1004.59
2018-06-21T08:50:31.613Z,1004.56
2018-06-21T08:51:31.590Z,1004.53
2018-06-21T08:52:31.579Z,1004.58
2018-06-21T08:53:31.827Z,1004.56
2018-06-21T08:54:31.753Z,1004.54
2018-06-21T08:55:31.576Z,1004.63
2018-06-21T08:57:31.909Z,1004.66
2018-06-21T08:58:31.476Z,1004.63
2018-06-21T08:59:31.461Z,1004.67
2018-06-21T09:00:31.467Z,1004.70
2018-06-21T09:01:31.431Z,1004.71
2018-06-21T09:02:31.430Z,1004.72
2018-06-21T09:03:31.703Z,1004.67
2018-06-21T09:04:31.476Z,1004.69
2018-06-21T09:05:31.368Z,1004.70
2018-06-21T09:06:31.616Z,1004.69
2018-06-21T09:07:31.343Z,1004.71
2018-06-21T09:08:31.332Z,1004.74
2018-06-21T09:09:31.623Z,1004.78
2018-06-21T09:10:31.302Z,1004.77
2018-06-21T09:11:31.282Z,1004.77
2018-06-21T09:12:31.269Z,1004.83
2018-06-21T09:13:31.264Z,1004.84
2018-06-21T09:14:31.234Z,1004.87
2018-06-21T09:15:31.537Z,1004.80
2018-06-21T09:16:31.211Z,1004.85
2018-06-21T09:17:31.305Z,1004.87
2018-06-21T09:18:31.235Z,1004.86
2018-06-21T09:19:31.170Z,1004.89
2018-06-21T09:20:31.146Z,1004.87
2018-06-21T09:21:31.434Z,1004.84
2018-06-21T09:22:31.140Z,1004.82
2018-06-21T09:23:31.100Z,1004.80
2018-06-21T09:24:31.089Z,1004.80
2018-06-21T09:25:31.071Z,1004.81
2018-06-21T09:26:31.055Z,1004.84
2018-06-21T09:27:31.342Z,1004.93
2018-06-21T09:28:31.037Z,1004.93
2018-06-21T09:29:31.021Z,1004.95
2018-06-21T09:31:30.986Z,1005.10
2018-06-21T09:32:30.963Z,1005.15
2018-06-21T09:33:31.254Z,1005.16
2018-06-21T09:34:30.938Z,1005.17
2018-06-21T09:36:30.912Z,1005.18
2018-06-21T09:37:30.984Z,1005.30
2018-06-21T09:38:30.883Z,1005.46
2018-06-21T09:39:31.167Z,1005.41
2018-06-21T09:40:30.850Z,1005.49
2018-06-21T09:41:30.881Z,1005.46
2018-06-21T09:42:30.825Z,1005.48
2018-06-21T09:43:30.808Z,1005.47
2018-06-21T09:44:30.796Z,1005.70
2018-06-21T09:45:31.082Z,1005.63
2018-06-21T09:46:34.366Z,1005.60
2018-06-21T09:47:30.760Z,1005.63
2018-06-21T09:48:30.756Z,1005.65
2018-06-21T09:49:30.737Z,1005.67
2018-06-21T09:50:30.820Z,1005.87
2018-06-21T09:51:31.004Z,1005.76
2018-06-21T09:52:30.755Z,1005.71
2018-06-21T09:53:30.680Z,1005.91
2018-06-21T09:54:30.678Z,1005.64
2018-06-21T09:55:30.656Z,1005.73
2018-06-21T09:57:30.962Z,1005.78
2018-06-21T09:58:30.674Z,1005.85
2018-06-21T09:59:30.609Z,1005.71
2018-06-21T10:00:30.595Z,1005.51
2018-06-21T10:01:30.651Z,1005.70
2018-06-21T10:02:30.575Z,1005.67
2018-06-21T10:03:30.864Z,1005.54
2018-06-21T10:04:30.554Z,1005.96
2018-06-21T10:05:30.539Z,1005.56
2018-06-21T10:06:30.534Z,1005.77
2018-06-21T10:07:30.573Z,1005.40
2018-06-21T10:08:30.511Z,1005.32
2018-06-21T10:09:30.795Z,1005.18
2018-06-21T10:10:30.485Z,1005.17
2018-06-21T10:11:30.483Z,1005.26
2018-06-21T10:12:30.465Z,1005.35
2018-06-21T10:13:31.018Z,1005.45
2018-06-21T10:16:30.716Z,1005.45
2018-06-21T10:17:30.464Z,1005.38
2018-06-21T10:18:30.391Z,1005.40
2018-06-21T10:19:30.382Z,1005.38
2018-06-21T10:20:30.370Z,1006.15
2018-06-21T10:21:30.361Z,1005.76
2018-06-21T10:22:30.654Z,1006.12
2018-06-21T10:23:30.332Z,1005.99
2018-06-21T10:24:30.333Z,1005.96
2018-06-21T10:25:30.403Z,1005.91
2018-06-21T10:26:30.299Z,1005.74
2018-06-21T10:27:30.292Z,1005.54
2018-06-21T10:28:30.273Z,1005.56
2018-06-21T10:29:30.567Z,1005.39
2018-06-21T10:30:30.248Z,1005.37
2018-06-21T10:31:30.246Z,1005.24
2018-06-21T10:32:30.227Z,1005.20
2018-06-21T10:33:30.252Z,1005.24
2018-06-21T10:34:30.217Z,1005.14
2018-06-21T10:35:30.492Z,1005.18
2018-06-21T10:36:30.179Z,1005.17
2018-06-21T10:37:30.166Z,1005.20
2018-06-21T10:38:30.153Z,1005.27
2018-06-21T10:39:30.505Z,1005.25
2018-06-21T10:40:30.135Z,1005.24
2018-06-21T10:43:30.105Z,1005.25
2018-06-21T10:44:30.085Z,1005.31
2018-06-21T10:45:30.072Z,1005.28
2018-06-21T10:46:30.085Z,1005.37
2018-06-21T10:47:30.348Z,1005.37
2018-06-21T10:48:30.029Z,1005.38
2018-06-21T10:49:30.120Z,1005.42
2018-06-21T10:50:30.015Z,1005.39
2018-06-21T10:51:29.997Z,1005.42
2018-06-21T10:52:29.983Z,1005.43
2018-06-21T10:53:29.976Z,1005.38
2018-06-21T10:54:30.257Z,1005.39
2018-06-21T10:55:29.995Z,1005.28
2018-06-21T10:56:29.935Z,1005.33
2018-06-21T10:57:29.922Z,1005.44
2018-06-21T10:58:29.909Z,1005.34
2018-06-21T10:59:29.889Z,1005.37
2018-06-21T11:00:30.800Z,1005.40
2018-06-21T11:01:29.866Z,1005.67
2018-06-21T11:02:29.866Z,1005.66
2018-06-21T11:03:29.938Z,1005.70
2018-06-21T11:04:30.109Z,1005.76
2018-06-21T11:05:30.042Z,1006.28
2018-06-21T11:06:30.272Z,1006.87
2018-06-21T11:07:29.991Z,1006.96
2018-06-21T11:08:29.974Z,1006.85
2018-06-21T11:09:30.158Z,1006.79
2018-06-21T11:10:29.762Z,1006.70
2018-06-21T11:11:29.770Z,1006.98
2018-06-21T11:12:29.734Z,1005.94
2018-06-21T11:13:30.045Z,1005.86
2018-06-21T11:14:29.720Z,1005.88
2018-06-21T11:15:29.705Z,1006.31
2018-06-21T11:16:29.696Z,1006.34
2018-06-21T11:17:29.686Z,1006.41
2018-06-21T11:18:29.728Z,1006.18
2018-06-21T11:19:29.974Z,1006.55
2018-06-21T11:21:29.909Z,1006.61
2018-06-21T11:22:29.636Z,1006.67
2018-06-21T11:23:29.625Z,1006.64
2018-06-21T11:24:29.618Z,1006.64
2018-06-21T11:25:29.601Z,1006.67
2018-06-21T11:26:29.885Z,1006.70
2018-06-21T11:27:29.592Z,1006.64
2018-06-21T11:29:29.562Z,1006.68
2018-06-21T11:30:29.531Z,1006.68
2018-06-21T11:31:29.516Z,1006.73
2018-06-21T11:32:29.856Z,1006.67
2018-06-21T11:33:29.498Z,1006.67
2018-06-21T11:34:29.478Z,1006.65
2018-06-21T11:35:29.460Z,1006.62
2018-06-21T11:36:29.445Z,1006.60
2018-06-21T11:37:29.524Z,1006.61
2018-06-21T11:38:29.899Z,1006.65
2018-06-21T11:39:29.430Z,1006.70
2018-06-21T11:40:29.391Z,1006.60
2018-06-21T11:41:29.379Z,1006.59
2018-06-21T11:42:29.372Z,1006.57
2018-06-21T11:43:29.413Z,1006.59
2018-06-21T11:44:29.630Z,1006.57
2018-06-21T11:45:29.314Z,1006.57
2018-06-21T11:46:29.292Z,1006.59
2018-06-21T11:47:29.278Z,1006.50
2018-06-21T11:48:29.282Z,1006.52
2018-06-21T11:49:29.309Z,1006.60
2018-06-21T11:50:29.238Z,1006.60
2018-06-21T11:51:29.253Z,1006.61
2018-06-21T11:52:29.248Z,1006.68
2018-06-21T11:53:29.194Z,1006.60
2018-06-21T11:54:29.208Z,1006.70
2018-06-21T11:55:29.511Z,1006.78
2018-06-21T11:56:29.135Z,1006.89
2018-06-21T11:57:29.127Z,1007.02
2018-06-21T11:58:29.165Z,1006.99
2018-06-21T11:59:29.086Z,1007.03
2018-06-21T12:00:29.080Z,1007.09
2018-06-21T12:01:29.067Z,1007.01
2018-06-21T12:02:29.077Z,1007.06
2018-06-21T12:03:29.173Z,1007.00
2018-06-21T12:04:29.017Z,1007.12
2018-06-21T12:05:29.054Z,1007.03
2018-06-21T12:06:29.282Z,1007.02
2018-06-21T12:07:28.972Z,1006.98
2018-06-21T12:09:28.982Z,1008.05
2018-06-21T12:10:28.928Z,1007.09
2018-06-21T12:11:28.911Z,1007.06
2018-06-21T12:12:29.193Z,1006.99
2018-06-21T12:13:28.899Z,1006.97
2018-06-21T12:14:28.874Z,1006.97
2018-06-21T12:15:28.860Z,1006.88
2018-06-21T12:16:28.845Z,1006.86
2018-06-21T12:17:28.823Z,1006.93
2018-06-21T12:18:29.257Z,1006.91
2018-06-21T12:19:28.802Z,1006.88
2018-06-21T12:20:28.805Z,1006.92
2018-06-21T12:21:28.830Z,1007.11
2018-06-21T12:22:28.786Z,1007.10
2018-06-21T12:23:28.751Z,1007.04
2018-06-21T12:24:29.032Z,1006.99
2018-06-21T12:25:28.711Z,1007.12
2018-06-21T12:26:28.820Z,1007.13
2018-06-21T12:27:28.716Z,1007.38
2018-06-21T12:28:28.667Z,1007.07
2018-06-21T12:29:28.646Z,1007.11
2018-06-21T12:30:28.635Z,1007.31
2018-06-21T12:31:29.028Z,1007.22
2018-06-21T12:32:28.609Z,1007.19
2018-06-21T12:33:28.589Z,1007.19
2018-06-21T12:34:28.585Z,1007.15
2018-06-21T12:35:28.573Z,1007.17
2018-06-21T12:36:28.545Z,1007.11
2018-06-21T12:37:28.577Z,1007.21
2018-06-21T12:38:28.812Z,1007.27
2018-06-21T12:39:28.495Z,1007.31
2018-06-21T12:40:28.483Z,1007.40
2018-06-21T12:41:28.465Z,1007.65